Flight Track Log - Related Links

Times and Time Zones

All times are in EST time to prevent confusion due to time zone crossing. See the N589H flight status page for this flight to view local times or setup timezone preferences in your user account.

Time Position Orientation Groundspeed Altitude Reporting Facility
EST Latitude Longitude Course Direction KTS MPH feet Rate Location/Type
Fri 03:04:01 AM 35.2283 -80.9394 29° Northeast 127 146 1,400  Level Atlanta Center
Fri 03:04:07 AM 35.2325 -80.9367 29° Northeast 132 152 1,800 2,000 Climbing Atlanta Center
Fri 03:05:07 AM 35.2375 -80.8806 84° East 201 231 3,600 1,835 Climbing Atlanta Center
Fri 03:06:08 AM 35.1908 -80.8569 158° South 219 252 5,500 1,832 Climbing Atlanta Center
Fri 03:07:18 AM 35.1350 -80.8742 194° South 203 234 7,600 1,892 Climbing Atlanta Center
Fri 03:08:18 AM 35.0792 -80.8942 196° South 208 239 9,600 2,000 Climbing Atlanta Center
Fri 03:09:18 AM 35.0214 -80.9167 198° South 208 239 11,600 2,000 Climbing Atlanta Center
Fri 03:10:18 AM 34.9653 -80.9314 192° South 213 245 13,600 2,042 Climbing Atlanta Center
Fri 03:12:29 AM 34.8461 -80.9650 193° South 209 241 18,100 1,791 Climbing Jacksonville Center
Fri 03:13:29 AM 34.7942 -80.9814 195° South 199 229 19,300 1,450 Climbing Jacksonville Center
Fri 03:14:29 AM 34.7400 -80.9903 188° South 194 223 21,000 1,600 Climbing Jacksonville Center
Fri 03:15:29 AM 34.6900 -81.0014 190° South 194 223 22,500 1,350 Climbing Jacksonville Center
Fri 03:16:29 AM 34.6342 -81.0228 197° South 205 236 23,700 1,250 Climbing Jacksonville Center
Fri 03:17:29 AM 34.5758 -81.0342 189° South 205 236 25,000 1,350 Climbing Jacksonville Center
Fri 03:18:29 AM 34.5239 -81.0478 192° South 205 236 26,400 1,350 Climbing Jacksonville Center
Fri 03:19:29 AM 34.4700 -81.0642 194° South 200 230 27,700 800 Climbing Jacksonville Center
Fri 03:20:29 AM 34.4117 -81.0831 195° South 205 236 28,000 150 Climbing Jacksonville Center
Fri 03:21:29 AM 34.3453 -81.0994 192° South 226 260 28,000  Level Jacksonville Center
Fri 03:22:29 AM 34.2661 -81.1161 190° South 251 289 28,000  Level Jacksonville Center
Fri 03:23:29 AM 34.1914 -81.1378 193° South 267 307 28,000  Level Jacksonville Center
Fri 03:24:29 AM 34.1103 -81.1594 192° South 287 330 28,000  Level Jacksonville Center
Fri 03:25:29 AM 34.0314 -81.1786 191° South 293 337 28,000  Level Jacksonville Center
Fri 03:26:29 AM 33.9544 -81.2000 193° South 298 343 28,000  Level Jacksonville Center
Fri 03:27:29 AM 33.8756 -81.2217 193° South 298 343 28,000  Level Jacksonville Center
Fri 03:28:29 AM 33.7944 -81.2431 192° South 298 343 28,000  Level Jacksonville Center
Fri 03:29:29 AM 33.7214 -81.2594 191° South 298 343 28,000  Level Jacksonville Center
Fri 03:30:29 AM 33.6403 -81.2808 192° South 298 343 28,000  Level Jacksonville Center
Fri 03:31:29 AM 33.5572 -81.3025 192° South 298 343 28,000  Level Jacksonville Center
Fri 03:32:29 AM 33.4739 -81.3264 193° South 298 343 28,000  Level Jacksonville Center
Fri 03:33:29 AM 33.3928 -81.3478 192° South 298 343 28,000  Level Jacksonville Center
Fri 03:34:29 AM 33.3014 -81.3692 191° South 298 343 28,000  Level Jacksonville Center
Fri 03:35:29 AM 33.2203 -81.3903 192° South 298 343 28,000  Level Jacksonville Center
Fri 03:36:29 AM 33.1431 -81.4114 193° South 303 349 28,000  Level Jacksonville Center
Fri 03:37:29 AM 33.0600 -81.4353 194° South 310 357 28,000  Level Jacksonville Center
Fri 03:38:29 AM 32.9767 -81.4539 191° South 315 362 28,000  Level Jacksonville Center
Fri 03:39:29 AM 32.8892 -81.4750 191° South 315 362 28,000  Level Jacksonville Center
Fri 03:40:29 AM 32.7997 -81.4839 185° South 320 368 28,000  Level Jacksonville Center
Fri 03:41:29 AM 32.7164 -81.5100 195° South 320 368 28,000  Level Jacksonville Center
Fri 03:42:29 AM 32.6269 -81.5433 197° South 314 361 28,000  Level Jacksonville Center
Fri 03:43:29 AM 32.5436 -81.5692 195° South 314 361 28,000  Level Jacksonville Center
Fri 03:44:29 AM 32.4708 -81.5850 190° South 308 354 28,000  Level Jacksonville Center
Fri 03:45:29 AM 32.3772 -81.6061 191° South 313 360 28,000  Level Jacksonville Center
Fri 03:46:29 AM 32.3022 -81.6219 190° South 313 360 28,000  Level Jacksonville Center
Fri 03:47:29 AM 32.2106 -81.6453 192° South 313 360 28,000  Level Jacksonville Center
Fri 03:48:29 AM 32.1250 -81.6661 192° South 315 362 28,000  Level Jacksonville Center
Fri 03:49:29 AM 32.0481 -81.6867 193° South 315 362 28,000  Level Jacksonville Center
Fri 03:50:29 AM 31.9564 -81.7100 192° South 315 362 28,000  Level Jacksonville Center
Fri 03:51:29 AM 31.8731 -81.7331 193° South 315 362 28,000  Level Jacksonville Center
Fri 03:52:29 AM 31.7961 -81.7536 193° South 315 362 28,000  Level Jacksonville Center
Fri 03:53:29 AM 31.7003 -81.7767 192° South 315 362 28,000  Level Jacksonville Center
Fri 03:54:29 AM 31.6231 -81.7972 193° South 320 368 28,000  Level Jacksonville Center
Fri 03:55:29 AM 31.5272 -81.8203 192° South 314 361 28,000  Level Jacksonville Center
Fri 03:56:29 AM 31.4503 -81.8381 191° South 314 361 28,000  Level Jacksonville Center
Fri 03:57:29 AM 31.3544 -81.8611 192° South 314 361 28,000  Level Jacksonville Center
Fri 03:58:29 AM 31.2772 -81.8814 193° South 319 367 28,000  Level Jacksonville Center
Fri 03:59:29 AM 31.1939 -81.9042 193° South 314 361 28,000  Level Jacksonville Center
Fri 04:00:29 AM 31.1083 -81.9244 191° South 314 361 28,000  Level Jacksonville Center
Fri 04:01:29 AM 31.0208 -81.9447 191° South 314 361 28,000  Level Jacksonville Center
Fri 04:02:29 AM 30.9375 -81.9672 193° South 314 361 28,000  Level Jacksonville Center
Fri 04:03:29 AM 30.8542 -81.9850 190° South 314 361 28,000  Level Jacksonville Center
Fri 04:04:29 AM 30.7686 -82.0053 192° South 314 361 28,000  Level Jacksonville Center
Fri 04:05:29 AM 30.6853 -82.0253 192° South 314 361 28,000  Level Jacksonville Center
Fri 04:06:29 AM 30.6000 -82.0478 193° South 314 361 28,000  Level Jacksonville Center
Fri 04:07:29 AM 30.5061 -82.0656 189° South 314 361 28,000  Level Jacksonville Center
Fri 04:08:29 AM 30.4206 -82.0881 193° South 314 361 28,000  Level Jacksonville Center
Fri 04:09:29 AM 30.3350 -82.1081 191° South 314 361 28,000  Level Jacksonville Center
Fri 04:10:29 AM 30.2497 -82.1303 193° South 314 361 28,000  Level Jacksonville Center
Fri 04:11:29 AM 30.1642 -82.1503 191° South 314 361 28,000  Level Jacksonville Center
Fri 04:12:29 AM 30.0808 -82.1725 193° South 314 361 28,000  Level Jacksonville Center
Fri 04:13:29 AM 30.0058 -82.1922 193° South 314 361 28,000  Level Jacksonville Center
Fri 04:14:29 AM 29.9203 -82.2119 191° South 314 361 28,000  Level Jacksonville Center
Fri 04:15:29 AM 29.8347 -82.2342 193° South 314 361 28,000  Level Jacksonville Center
Fri 04:16:29 AM 29.7389 -82.2539 190° South 320 368 28,000  Level Jacksonville Center
Fri 04:17:29 AM 29.6553 -82.2758 193° South 320 368 28,000  Level Jacksonville Center
Fri 04:18:29 AM 29.5678 -82.2956 191° South 320 368 28,000  Level Jacksonville Center
Fri 04:19:29 AM 29.4844 -82.3175 193° South 315 362 28,000  Level Jacksonville Center
Fri 04:20:29 AM 29.3989 -82.3372 191° South 315 362 28,000  Level Jacksonville Center
Fri 04:21:29 AM 29.3133 -82.3567 191° South 315 362 28,000  Level Jacksonville Center
Fri 04:22:29 AM 29.2278 -82.3761 191° South 315 362 28,000 -450 Level Jacksonville Center
Fri 04:23:29 AM 29.1403 -82.3956 191° South 315 362 27,100 -1,150 Descending Jacksonville Center
Fri 04:24:29 AM 29.0547 -82.4175 193° South 315 362 25,700 -1,500 Descending Jacksonville Center
Fri 04:25:29 AM 28.9650 -82.4392 192° South 315 362 24,100 -1,550 Descending Jacksonville Center
Fri 04:26:29 AM 28.8817 -82.4611 193° South 315 362 22,600 -1,560 Descending Jacksonville Center
Fri 04:28:49 AM 28.6667 -82.5167 193° South 325 374 18,900 -1,620 Descending Tampa TRACON
Fri 04:29:49 AM 28.5833 -82.5333 190° South 313 360 17,200 -1,950 Descending Tampa TRACON
Fri 04:30:49 AM 28.5000 -82.5500 190° South 306 352 15,000 -2,250 Descending Tampa TRACON
Fri 04:31:49 AM 28.4167 -82.5667 190° South 300 345 12,700 -2,250 Descending Tampa TRACON
Fri 04:32:49 AM 28.3500 -82.5833 192° South 291 335 10,500 -2,132 Descending Tampa TRACON
Fri 04:33:50 AM 28.2667 -82.6000 190° South 282 325 8,400 -1,934 Descending Tampa TRACON
Fri 04:34:50 AM 28.2000 -82.6167 192° South 266 306 6,600 -1,750 Descending Tampa TRACON
Fri 04:35:50 AM 28.1167 -82.6333 190° South 260 299 4,900 -1,700 Descending Tampa TRACON
Fri 04:36:50 AM 28.0500 -82.6500 192° South 266 306 3,200 -1,400 Descending Tampa TRACON
Fri 04:37:50 AM 27.9833 -82.6667 192° South 222 255 2,100 -850 Descending Tampa TRACON
Fri 04:38:50 AM 27.9333 -82.6667 180° South 185 213 1,500 -450 Descending Tampa TRACON
Fri 04:39:50 AM 27.8833 -82.6500 164° South 157 181 1,200 -600 Descending Tampa TRACON
Fri 04:40:50 AM 27.8833 -82.6833 270° West 124 143 300 -900 Descending Tampa TRACON

Login

Don't have an account? Register now (free) for customized features, flight alerts, and more!